Time;durP1;ratioP1;P1;durP2;ratioP2;P2;SDS_P1;SDS_P2;PMS_P1;PMS_P2;Temp;Humidity;BMP_temperature;BMP_pressure;BME280_temperature;BME280_humidity;BME280_pressure;Samples;Min_cycle;Max_cycle;Signal;HPM_P1;HPM_P2
2023/07/14 00:00:36;;;;;;;8.30;2.80;;;;;;;;;;5005471;28;20041;-58
2023/07/14 00:03:05;;;;;;;7.15;2.63;;;;;;;;;;5018933;28;20241;-58
2023/07/14 00:05:33;;;;;;;7.00;2.50;;;;;;;;;;5014434;28;20041;-58
2023/07/14 00:08:03;;;;;;;8.17;3.27;;;;;;;;;;5027662;28;20048;-58
2023/07/14 00:10:32;;;;;;;9.05;2.92;;;;;;;;;;5006846;28;20079;-58
2023/07/14 00:13:05;;;;;;;9.27;2.95;;;;;;;;;;5021357;28;20049;-58
2023/07/14 00:15:35;;;;;;;12.18;2.38;;;;;;;;;;5004233;28;20045;-59
2023/07/14 00:18:12;;;;;;;9.70;3.13;;;;;;;;;;5004356;28;20048;-58
2023/07/14 00:20:40;;;;;;;9.00;2.63;;;;;;;;;;5023892;28;20148;-54
2023/07/14 00:23:11;;;;;;;8.48;2.60;;;;;;;;;;5002350;28;20037;-58
2023/07/14 00:25:39;;;;;;;8.45;2.25;;;;;;;;;;5009706;28;20175;-58
2023/07/14 00:28:12;;;;;;;9.23;2.55;;;;;;;;;;5004362;28;20052;-58
2023/07/14 00:30:43;;;;;;;9.48;2.92;;;;;;;;;;5021396;28;20045;-58
2023/07/14 00:33:13;;;;;;;10.93;2.60;;;;;;;;;;5015027;28;20041;-58
2023/07/14 00:35:42;;;;;;;7.90;2.83;;;;;;;;;;4991394;28;20049;-57
2023/07/14 00:38:10;;;;;;;7.38;2.75;;;;;;;;;;5027246;28;20047;-58
2023/07/14 00:40:40;;;;;;;10.38;3.42;;;;;;;;;;5013706;28;20038;-58
2023/07/14 00:43:13;;;;;;;6.80;2.65;;;;;;;;;;5020766;28;20123;-58
2023/07/14 00:45:41;;;;;;;9.57;2.60;;;;;;;;;;4997110;28;20055;-57
2023/07/14 00:48:11;;;;;;;9.63;3.25;;;;;;;;;;5021439;28;20151;-58
2023/07/14 00:50:42;;;;;;;11.70;3.47;;;;;;;;;;5000930;28;20045;-58
2023/07/14 00:53:12;;;;;;;9.82;2.72;;;;;;;;;;5001531;28;20042;-58
2023/07/14 00:55:41;;;;;;;9.75;3.42;;;;;;;;;;5007178;28;20052;-57
2023/07/14 00:58:15;;;;;;;11.10;2.70;;;;;;;;;;5014423;28;20057;-58
2023/07/14 01:00:57;;;;;;;8.10;2.70;;;;;;;;;;5015538;28;20426;-57
2023/07/14 01:03:25;;;;;;;8.63;2.40;;;;;;;;;;4994793;28;20205;-58
2023/07/14 01:05:55;;;;;;;7.85;3.13;;;;;;;;;;5010959;28;20073;-58
2023/07/14 01:08:28;;;;;;;8.45;2.70;;;;;;;;;;4991075;28;20041;-58
2023/07/14 01:10:56;;;;;;;8.00;2.93;;;;;;;;;;5006730;28;20053;-58
2023/07/14 01:13:25;;;;;;;11.70;3.03;;;;;;;;;;4995741;28;20042;-58
2023/07/14 01:15:53;;;;;;;9.52;3.10;;;;;;;;;;5008135;28;20033;-58
2023/07/14 01:18:21;;;;;;;8.13;3.10;;;;;;;;;;4998417;28;20045;-58
2023/07/14 01:20:49;;;;;;;9.18;2.88;;;;;;;;;;5018195;28;20510;-58
2023/07/14 01:23:26;;;;;;;14.00;3.03;;;;;;;;;;4997053;28;20065;-58
2023/07/14 01:26:01;;;;;;;7.55;3.00;;;;;;;;;;5016915;28;20046;-58
2023/07/14 01:28:30;;;;;;;9.10;2.88;;;;;;;;;;5008844;28;21360;-58
2023/07/14 01:30:57;;;;;;;7.95;2.55;;;;;;;;;;5008137;28;20048;-58
2023/07/14 01:33:25;;;;;;;8.95;3.10;;;;;;;;;;5019413;28;20051;-58
2023/07/14 01:35:54;;;;;;;9.93;2.70;;;;;;;;;;5014513;28;20376;-59
2023/07/14 01:38:23;;;;;;;8.13;2.80;;;;;;;;;;5015829;28;20036;-58
2023/07/14 01:40:51;;;;;;;12.75;3.25;;;;;;;;;;4995076;28;20041;-58
2023/07/14 01:43:19;;;;;;;7.93;2.63;;;;;;;;;;5021153;28;20037;-58
2023/07/14 01:45:50;;;;;;;10.23;3.13;;;;;;;;;;5002080;28;20136;-58
2023/07/14 01:48:21;;;;;;;10.50;3.17;;;;;;;;;;5000231;28;20045;-58
2023/07/14 01:50:50;;;;;;;9.20;2.60;;;;;;;;;;4993932;28;20048;-58
2023/07/14 01:53:22;;;;;;;11.77;2.70;;;;;;;;;;5003800;28;20440;-58
2023/07/14 01:55:50;;;;;;;9.20;3.15;;;;;;;;;;4977480;28;20037;-58
2023/07/14 01:58:22;;;;;;;8.65;2.67;;;;;;;;;;4988274;28;20049;-57
2023/07/14 02:00:52;;;;;;;11.43;2.93;;;;;;;;;;4998543;28;20048;-58
2023/07/14 02:03:25;;;;;;;8.35;2.95;;;;;;;;;;4975490;28;20250;-58
2023/07/14 02:05:53;;;;;;;10.00;2.75;;;;;;;;;;5008686;28;20061;-58
2023/07/14 02:08:23;;;;;;;9.95;3.05;;;;;;;;;;4997167;28;20041;-58
2023/07/14 02:10:51;;;;;;;7.80;2.83;;;;;;;;;;5010765;28;20446;-58
2023/07/14 02:13:18;;;;;;;9.20;3.47;;;;;;;;;;5011155;28;20581;-58
2023/07/14 02:15:47;;;;;;;10.65;3.17;;;;;;;;;;5011832;28;20037;-58
2023/07/14 02:18:19;;;;;;;10.88;3.63;;;;;;;;;;5006128;28;20046;-58
2023/07/14 02:20:48;;;;;;;12.35;3.10;;;;;;;;;;5012659;28;20067;-58
2023/07/14 02:23:19;;;;;;;10.07;2.83;;;;;;;;;;5006816;28;20116;-58
2023/07/14 02:25:48;;;;;;;8.37;3.10;;;;;;;;;;5011980;28;20056;-58
2023/07/14 02:28:15;;;;;;;10.52;2.80;;;;;;;;;;5002386;28;20030;-58
2023/07/14 02:30:45;;;;;;;10.23;2.75;;;;;;;;;;4996738;28;20065;-58
2023/07/14 02:33:18;;;;;;;10.15;3.15;;;;;;;;;;5008463;28;20034;-58
2023/07/14 02:35:51;;;;;;;10.68;2.92;;;;;;;;;;5005805;28;20115;-58
2023/07/14 02:38:19;;;;;;;12.03;3.20;;;;;;;;;;4998521;28;20052;-58
2023/07/14 02:40:49;;;;;;;7.63;3.00;;;;;;;;;;4999172;28;20043;-58
2023/07/14 02:43:18;;;;;;;11.75;3.67;;;;;;;;;;5012052;28;20805;-58
2023/07/14 02:45:50;;;;;;;9.57;3.03;;;;;;;;;;5011454;28;20060;-58
2023/07/14 02:48:22;;;;;;;12.75;3.40;;;;;;;;;;5009115;28;20041;-58
2023/07/14 02:50:51;;;;;;;13.10;3.07;;;;;;;;;;5021952;28;20045;-58
2023/07/14 02:53:19;;;;;;;8.43;2.50;;;;;;;;;;5006534;28;20037;-58
2023/07/14 02:55:47;;;;;;;11.55;2.70;;;;;;;;;;5017273;28;20187;-58
2023/07/14 02:58:15;;;;;;;7.75;2.58;;;;;;;;;;5017748;28;20141;-58
2023/07/14 03:00:44;;;;;;;9.23;3.13;;;;;;;;;;5003330;28;20492;-58
2023/07/14 03:03:12;;;;;;;10.20;3.00;;;;;;;;;;4988848;28;20053;-58
2023/07/14 03:05:40;;;;;;;12.10;3.65;;;;;;;;;;5016381;28;20360;-58
2023/07/14 03:08:15;;;;;;;8.38;2.70;;;;;;;;;;5005870;28;20038;-58
2023/07/14 03:10:43;;;;;;;9.02;2.90;;;;;;;;;;5013660;28;20057;-58
2023/07/14 03:13:11;;;;;;;9.75;2.88;;;;;;;;;;4981724;28;20037;-58
2023/07/14 03:15:39;;;;;;;7.87;3.27;;;;;;;;;;5014026;28;20899;-58
2023/07/14 03:18:07;;;;;;;9.18;3.03;;;;;;;;;;5018084;28;20045;-58
2023/07/14 03:20:37;;;;;;;10.05;2.85;;;;;;;;;;4995493;28;20075;-58
2023/07/14 03:23:04;;;;;;;10.40;3.60;;;;;;;;;;5010992;28;20045;-58
2023/07/14 03:25:34;;;;;;;10.35;3.20;;;;;;;;;;5021836;28;20040;-58
2023/07/14 03:28:03;;;;;;;9.07;2.80;;;;;;;;;;5001296;28;20057;-57
2023/07/14 03:30:32;;;;;;;10.73;3.35;;;;;;;;;;5015406;28;20047;-58
2023/07/14 03:33:00;;;;;;;12.10;3.38;;;;;;;;;;5004903;28;20107;-58
2023/07/14 03:35:27;;;;;;;9.45;3.60;;;;;;;;;;5008530;28;20049;-58
2023/07/14 03:37:55;;;;;;;13.52;3.65;;;;;;;;;;5002268;28;20403;-57
2023/07/14 03:40:23;;;;;;;9.97;3.13;;;;;;;;;;5008217;28;20095;-58
2023/07/14 03:42:52;;;;;;;8.20;3.03;;;;;;;;;;4997413;28;20045;-57
2023/07/14 03:45:20;;;;;;;9.10;3.63;;;;;;;;;;4999324;28;20047;-58
2023/07/14 03:47:49;;;;;;;10.00;3.20;;;;;;;;;;5022291;28;20387;-58
2023/07/14 03:50:18;;;;;;;8.05;3.10;;;;;;;;;;5006333;28;20061;-58
2023/07/14 03:52:46;;;;;;;7.53;3.50;;;;;;;;;;5011568;28;20357;-58
2023/07/14 03:55:13;;;;;;;10.35;3.78;;;;;;;;;;4994500;28;20478;-58
2023/07/14 03:57:41;;;;;;;11.23;3.40;;;;;;;;;;5023119;28;20064;-58
2023/07/14 04:00:30;;;;;;;10.65;3.40;;;;;;;;;;5011333;28;20042;-58
2023/07/14 04:02:59;;;;;;;9.52;3.55;;;;;;;;;;5024454;28;20065;-59
2023/07/14 04:05:27;;;;;;;9.97;2.93;;;;;;;;;;5004327;28;20095;-58
2023/07/14 04:07:55;;;;;;;9.13;3.20;;;;;;;;;;5007474;28;20037;-58
2023/07/14 04:10:23;;;;;;;12.73;3.95;;;;;;;;;;5003381;28;20108;-58
2023/07/14 04:12:51;;;;;;;10.13;3.08;;;;;;;;;;5019044;28;20644;-60
2023/07/14 04:15:21;;;;;;;16.17;3.53;;;;;;;;;;4992315;28;20554;-58
2023/07/14 04:17:51;;;;;;;10.30;3.63;;;;;;;;;;5019999;28;20049;-58
2023/07/14 04:20:19;;;;;;;9.07;3.05;;;;;;;;;;5018434;28;20609;-58
2023/07/14 04:22:47;;;;;;;10.07;3.05;;;;;;;;;;4993441;28;20084;-58
2023/07/14 04:25:15;;;;;;;9.02;3.35;;;;;;;;;;5011552;28;20610;-58
2023/07/14 04:27:42;;;;;;;7.85;3.08;;;;;;;;;;4991969;28;20435;-58
2023/07/14 04:30:10;;;;;;;8.77;3.30;;;;;;;;;;5019104;28;20036;-58
2023/07/14 04:32:38;;;;;;;9.95;3.00;;;;;;;;;;5002511;28;20595;-58
2023/07/14 04:35:08;;;;;;;8.80;3.25;;;;;;;;;;5005395;28;20046;-58
2023/07/14 04:37:36;;;;;;;13.90;4.10;;;;;;;;;;4993336;28;20044;-58
2023/07/14 04:40:06;;;;;;;9.93;4.15;;;;;;;;;;5012172;28;20052;-57
2023/07/14 04:42:52;;;;;;;14.07;4.27;;;;;;;;;;5000483;28;20041;-57
2023/07/14 04:45:20;;;;;;;8.57;3.80;;;;;;;;;;5003769;28;20044;-57
2023/07/14 04:47:50;;;;;;;12.15;3.33;;;;;;;;;;5017620;28;20077;-57
2023/07/14 04:50:20;;;;;;;9.30;4.18;;;;;;;;;;4996891;28;21871;-57
2023/07/14 04:52:48;;;;;;;12.18;4.55;;;;;;;;;;5013322;28;20037;-57
2023/07/14 04:55:16;;;;;;;12.07;4.90;;;;;;;;;;5003840;28;20046;-57
2023/07/14 04:57:46;;;;;;;13.02;4.28;;;;;;;;;;5015835;28;20112;-57
2023/07/14 05:00:15;;;;;;;12.18;4.70;;;;;;;;;;4999951;28;20114;-57
2023/07/14 05:02:42;;;;;;;12.52;4.95;;;;;;;;;;5018650;28;20820;-57
2023/07/14 05:05:11;;;;;;;11.23;4.65;;;;;;;;;;5003595;28;20132;-57
2023/07/14 05:07:40;;;;;;;11.63;5.03;;;;;;;;;;5002146;28;20041;-57
2023/07/14 05:10:09;;;;;;;13.57;5.50;;;;;;;;;;4996861;28;20041;-58
2023/07/14 05:12:37;;;;;;;12.95;5.25;;;;;;;;;;5019633;28;20048;-58
2023/07/14 05:15:05;;;;;;;12.20;5.47;;;;;;;;;;4998103;28;20033;-57
2023/07/14 05:17:42;;;;;;;12.90;5.60;;;;;;;;;;4999114;28;20528;-58
2023/07/14 05:20:12;;;;;;;16.23;5.43;;;;;;;;;;5004006;28;20756;-57
2023/07/14 05:22:42;;;;;;;14.55;5.88;;;;;;;;;;4993830;28;20096;-58
2023/07/14 05:25:10;;;;;;;11.68;5.70;;;;;;;;;;5014376;28;20047;-57
2023/07/14 05:27:38;;;;;;;13.02;5.75;;;;;;;;;;5015322;28;20038;-58
2023/07/14 05:30:09;;;;;;;14.63;5.95;;;;;;;;;;5004691;28;20120;-57
2023/07/14 05:32:36;;;;;;;16.17;6.77;;;;;;;;;;4997409;28;20749;-58
2023/07/14 05:35:06;;;;;;;12.70;6.22;;;;;;;;;;5008906;28;20059;-58
2023/07/14 05:37:34;;;;;;;15.38;6.88;;;;;;;;;;5010153;28;20617;-57
2023/07/14 05:40:05;;;;;;;14.57;6.68;;;;;;;;;;5014027;28;20180;-57
2023/07/14 05:42:34;;;;;;;17.45;6.90;;;;;;;;;;5007930;28;20044;-58
2023/07/14 05:45:03;;;;;;;20.10;7.67;;;;;;;;;;5023389;28;20045;-57
2023/07/14 05:47:31;;;;;;;19.17;8.68;;;;;;;;;;5017500;28;21006;-57
2023/07/14 05:50:00;;;;;;;17.50;9.20;;;;;;;;;;5017852;28;20039;-58
2023/07/14 05:52:28;;;;;;;17.58;8.18;;;;;;;;;;5009807;28;20049;-58
2023/07/14 05:54:55;;;;;;;27.05;10.25;;;;;;;;;;4994764;28;20491;-57
2023/07/14 05:57:24;;;;;;;18.40;9.13;;;;;;;;;;4997326;28;20415;-58
2023/07/14 05:59:52;;;;;;;18.45;10.57;;;;;;;;;;5004924;28;20515;-58
2023/07/14 06:02:20;;;;;;;19.77;9.60;;;;;;;;;;5009687;28;20041;-57
2023/07/14 06:04:48;;;;;;;20.23;9.07;;;;;;;;;;5001334;28;20041;-57
2023/07/14 06:07:16;;;;;;;18.20;7.78;;;;;;;;;;5012284;28;20131;-58
2023/07/14 06:09:44;;;;;;;14.77;7.67;;;;;;;;;;4997745;28;20046;-58
2023/07/14 06:12:12;;;;;;;17.15;7.72;;;;;;;;;;5009054;28;20045;-57
2023/07/14 06:14:42;;;;;;;16.30;7.28;;;;;;;;;;5005671;28;20107;-57
2023/07/14 06:17:13;;;;;;;15.95;6.85;;;;;;;;;;5008261;28;20069;-58
2023/07/14 06:19:41;;;;;;;15.00;7.38;;;;;;;;;;5003382;28;20476;-58
2023/07/14 06:22:11;;;;;;;16.07;7.03;;;;;;;;;;5004613;28;20705;-57
2023/07/14 06:24:39;;;;;;;16.58;7.22;;;;;;;;;;5003891;28;20116;-59
2023/07/14 06:27:07;;;;;;;17.60;7.80;;;;;;;;;;5009305;28;20060;-57
2023/07/14 06:29:38;;;;;;;16.52;7.60;;;;;;;;;;5018107;28;20033;-58
2023/07/14 06:32:08;;;;;;;17.08;7.40;;;;;;;;;;5007735;28;20034;-58
2023/07/14 06:34:36;;;;;;;18.93;7.77;;;;;;;;;;5022219;28;20124;-58
2023/07/14 06:37:04;;;;;;;16.20;7.53;;;;;;;;;;5005283;28;20418;-58
2023/07/14 06:39:33;;;;;;;16.85;7.65;;;;;;;;;;5016331;28;20041;-58
2023/07/14 06:42:03;;;;;;;17.30;7.70;;;;;;;;;;5010622;28;20037;-58
2023/07/14 06:44:35;;;;;;;15.27;7.03;;;;;;;;;;5015687;28;20410;-58
2023/07/14 06:47:03;;;;;;;18.90;7.80;;;;;;;;;;5005735;28;21970;-58
2023/07/14 06:49:33;;;;;;;13.95;7.05;;;;;;;;;;5014039;28;20446;-58
2023/07/14 06:52:00;;;;;;;12.35;6.20;;;;;;;;;;5024116;28;20442;-58
2023/07/14 06:54:29;;;;;;;11.55;5.97;;;;;;;;;;5008511;28;20155;-58
2023/07/14 06:56:57;;;;;;;14.27;5.90;;;;;;;;;;5009195;28;20049;-58
2023/07/14 06:59:25;;;;;;;11.73;4.90;;;;;;;;;;5013911;28;20033;-57
2023/07/14 07:01:54;;;;;;;15.43;5.88;;;;;;;;;;5012118;28;20059;-58
2023/07/14 07:04:21;;;;;;;12.82;5.43;;;;;;;;;;5006636;28;20049;-56
2023/07/14 07:06:53;;;;;;;13.52;5.22;;;;;;;;;;5017502;28;20040;-58
2023/07/14 07:09:20;;;;;;;11.77;5.10;;;;;;;;;;4997292;28;20646;-58
2023/07/14 07:11:48;;;;;;;13.57;5.50;;;;;;;;;;5014087;28;20488;-58
2023/07/14 07:14:16;;;;;;;13.57;5.60;;;;;;;;;;5012690;28;20110;-58
2023/07/14 07:16:45;;;;;;;12.85;6.32;;;;;;;;;;5014314;28;22797;-59
2023/07/14 07:19:13;;;;;;;14.15;6.10;;;;;;;;;;5001314;28;20041;-58
2023/07/14 07:21:41;;;;;;;13.70;6.07;;;;;;;;;;5002902;28;20048;-59
2023/07/14 07:24:15;;;;;;;18.50;6.27;;;;;;;;;;5008692;28;20034;-59
2023/07/14 07:26:42;;;;;;;15.73;6.03;;;;;;;;;;5019431;28;20428;-59
2023/07/14 07:29:11;;;;;;;13.02;4.88;;;;;;;;;;5016724;28;20048;-59
2023/07/14 07:31:39;;;;;;;12.15;5.43;;;;;;;;;;5012470;28;20053;-59
2023/07/14 07:34:08;;;;;;;10.27;4.53;;;;;;;;;;5002974;28;21089;-59
2023/07/14 07:36:36;;;;;;;11.67;4.43;;;;;;;;;;5021958;28;20132;-58
2023/07/14 07:39:04;;;;;;;10.60;4.03;;;;;;;;;;5002263;28;20045;-59
2023/07/14 07:41:33;;;;;;;10.23;4.00;;;;;;;;;;5006612;28;20041;-58
2023/07/14 07:44:01;;;;;;;11.60;4.22;;;;;;;;;;5000778;28;20052;-58
2023/07/14 07:46:29;;;;;;;11.77;4.47;;;;;;;;;;5010535;28;20045;-58
2023/07/14 07:48:56;;;;;;;12.80;3.70;;;;;;;;;;5005632;28;20506;-58
2023/07/14 07:51:24;;;;;;;12.52;3.80;;;;;;;;;;5022192;28;20047;-58
2023/07/14 07:53:55;;;;;;;7.95;3.75;;;;;;;;;;5021605;28;20037;-58
2023/07/14 07:56:24;;;;;;;9.65;4.65;;;;;;;;;;5013488;28;20494;-58
2023/07/14 07:58:55;;;;;;;12.75;4.18;;;;;;;;;;5014586;28;20504;-57
2023/07/14 08:01:25;;;;;;;11.40;4.70;;;;;;;;;;4996300;28;20049;-58
2023/07/14 08:03:53;;;;;;;10.35;4.63;;;;;;;;;;5017837;28;20128;-57
2023/07/14 08:06:21;;;;;;;9.80;4.70;;;;;;;;;;5005361;28;20491;-58
2023/07/14 08:08:51;;;;;;;13.85;4.90;;;;;;;;;;5007759;28;20099;-58
2023/07/14 08:11:18;;;;;;;10.60;4.25;;;;;;;;;;5005543;28;20068;-58
2023/07/14 08:13:46;;;;;;;12.30;4.70;;;;;;;;;;5014833;28;20036;-58
2023/07/14 08:16:15;;;;;;;9.48;4.13;;;;;;;;;;5008551;28;20049;-58
2023/07/14 08:18:44;;;;;;;11.30;4.45;;;;;;;;;;5001402;28;20034;-58
2023/07/14 08:21:12;;;;;;;9.70;3.90;;;;;;;;;;5004251;28;20041;-59
2023/07/14 08:23:40;;;;;;;11.00;4.20;;;;;;;;;;5013413;28;20152;-59
2023/07/14 08:26:08;;;;;;;7.13;3.70;;;;;;;;;;5004336;28;20041;-58
2023/07/14 08:28:36;;;;;;;9.98;4.30;;;;;;;;;;5011122;28;20072;-58
2023/07/14 08:31:08;;;;;;;13.73;3.60;;;;;;;;;;5000936;28;20448;-58
2023/07/14 08:33:42;;;;;;;7.30;3.22;;;;;;;;;;4667331;28;10000679;-58
2023/07/14 08:36:11;;;;;;;8.90;3.17;;;;;;;;;;4991616;28;20184;-58
2023/07/14 08:38:40;;;;;;;7.25;2.92;;;;;;;;;;5001109;28;20081;-58
2023/07/14 08:41:14;;;;;;;9.60;3.50;;;;;;;;;;5004442;28;20547;-58
2023/07/14 08:43:52;;;;;;;8.27;3.30;;;;;;;;;;4650054;28;10000341;-58
2023/07/14 08:46:35;;;;;;;5.50;2.50;;;;;;;;;;5008769;28;20048;-58
2023/07/14 08:49:05;;;;;;;8.30;2.72;;;;;;;;;;4991673;28;20115;-58
2023/07/14 08:51:37;;;;;;;6.93;3.03;;;;;;;;;;5003173;28;20142;-58
2023/07/14 08:54:09;;;;;;;6.30;3.00;;;;;;;;;;4997221;28;20049;-58
2023/07/14 08:56:38;;;;;;;7.67;3.10;;;;;;;;;;5002718;28;20064;-58
2023/07/14 08:59:07;;;;;;;9.13;2.85;;;;;;;;;;5001538;28;20045;-58
2023/07/14 09:01:36;;;;;;;6.75;3.00;;;;;;;;;;4999268;28;20048;-58
2023/07/14 09:04:06;;;;;;;7.68;3.28;;;;;;;;;;5001905;28;20135;-58
2023/07/14 09:06:40;;;;;;;9.40;2.90;;;;;;;;;;5004981;28;20511;-58
2023/07/14 09:09:14;;;;;;;10.33;3.37;;;;;;;;;;4998635;28;20045;-58
2023/07/14 09:11:46;;;;;;;8.75;2.92;;;;;;;;;;4997431;28;20041;-55
2023/07/14 09:14:23;;;;;;;8.02;3.08;;;;;;;;;;4996406;28;20045;-58
2023/07/14 09:16:54;;;;;;;7.60;2.97;;;;;;;;;;5005635;28;20045;-58
2023/07/14 09:19:30;;;;;;;7.68;2.95;;;;;;;;;;5001786;28;20033;-57
2023/07/14 09:22:00;;;;;;;8.97;3.20;;;;;;;;;;5004498;28;20053;-58
2023/07/14 09:24:31;;;;;;;9.20;2.70;;;;;;;;;;4996608;28;20037;-58
2023/07/14 09:26:59;;;;;;;8.25;2.90;;;;;;;;;;5010689;28;20044;-58
2023/07/14 09:29:31;;;;;;;7.85;3.20;;;;;;;;;;4997993;28;20557;-58
2023/07/14 09:32:01;;;;;;;9.52;3.33;;;;;;;;;;5003528;28;20124;-58
2023/07/14 09:34:33;;;;;;;8.87;3.13;;;;;;;;;;4981376;28;20040;-58
2023/07/14 09:37:01;;;;;;;8.52;2.72;;;;;;;;;;5012534;28;20542;-58
2023/07/14 09:39:36;;;;;;;7.70;2.83;;;;;;;;;;4995303;28;20511;-58
2023/07/14 09:42:05;;;;;;;5.72;2.35;;;;;;;;;;4992814;28;20037;-57
2023/07/14 09:44:34;;;;;;;5.97;2.00;;;;;;;;;;4995483;28;20037;-58
2023/07/14 09:47:03;;;;;;;8.50;3.07;;;;;;;;;;5005419;28;20046;-56
2023/07/14 09:49:37;;;;;;;10.13;3.00;;;;;;;;;;4997800;28;20045;-58
2023/07/14 09:52:10;;;;;;;10.35;3.28;;;;;;;;;;5025821;28;20049;-58
2023/07/14 09:54:42;;;;;;;8.73;3.03;;;;;;;;;;5010378;28;20052;-58
2023/07/14 09:57:12;;;;;;;9.20;2.70;;;;;;;;;;5014864;28;20124;-58
2023/07/14 10:00:01;;;;;;;9.10;3.10;;;;;;;;;;5022265;28;20048;-57
2023/07/14 10:02:29;;;;;;;9.50;3.15;;;;;;;;;;5005493;28;20068;-58
2023/07/14 10:05:03;;;;;;;9.07;3.63;;;;;;;;;;5010896;28;20061;-58
2023/07/14 10:07:32;;;;;;;9.40;3.08;;;;;;;;;;5003356;28;20042;-58
2023/07/14 10:10:07;;;;;;;10.48;3.78;;;;;;;;;;5004565;28;20128;-58
2023/07/14 10:12:40;;;;;;;12.33;3.57;;;;;;;;;;5016032;28;20115;-58
2023/07/14 10:15:25;;;;;;;10.45;3.50;;;;;;;;;;5005285;28;20053;-58
2023/07/14 10:17:54;;;;;;;11.13;3.55;;;;;;;;;;5011753;28;20216;-58
2023/07/14 10:20:24;;;;;;;10.15;3.70;;;;;;;;;;5014639;28;20561;-56
2023/07/14 10:22:53;;;;;;;11.60;4.22;;;;;;;;;;5013287;28;20037;-57
2023/07/14 10:25:23;;;;;;;11.10;4.10;;;;;;;;;;5015558;28;20068;-58
2023/07/14 10:27:57;;;;;;;11.43;4.70;;;;;;;;;;5008967;28;20044;-58
2023/07/14 10:30:35;;;;;;;7.32;3.05;;;;;;;;;;5017601;28;20083;-58
2023/07/14 10:33:03;;;;;;;8.45;3.38;;;;;;;;;;5018765;28;20046;-57
2023/07/14 10:35:36;;;;;;;8.88;3.65;;;;;;;;;;5009677;28;20080;-58
2023/07/14 10:38:05;;;;;;;11.50;3.10;;;;;;;;;;5004489;28;20196;-58
2023/07/14 10:40:34;;;;;;;9.38;3.35;;;;;;;;;;5015398;28;20037;-58
2023/07/14 10:43:04;;;;;;;13.25;3.78;;;;;;;;;;5019825;28;20052;-57
2023/07/14 10:45:34;;;;;;;10.93;3.35;;;;;;;;;;4320534;28;10000768;-58
2023/07/14 10:48:04;;;;;;;8.23;2.47;;;;;;;;;;5015275;28;20092;-57
2023/07/14 10:50:34;;;;;;;9.60;3.10;;;;;;;;;;5011696;28;20037;-58
2023/07/14 10:53:06;;;;;;;6.40;2.83;;;;;;;;;;5020993;28;20545;-58
2023/07/14 10:55:39;;;;;;;11.77;3.17;;;;;;;;;;5023077;28;20044;-58
2023/07/14 10:58:12;;;;;;;10.80;2.90;;;;;;;;;;5011118;28;20041;-57
2023/07/14 11:00:42;;;;;;;8.35;3.08;;;;;;;;;;5011759;28;20045;-57
2023/07/14 11:03:17;;;;;;;7.67;3.23;;;;;;;;;;5008112;28;20041;-58
2023/07/14 11:05:51;;;;;;;8.45;3.67;;;;;;;;;;5010573;28;20518;-60
2023/07/14 11:08:22;;;;;;;10.85;3.53;;;;;;;;;;5005219;28;20040;-58
2023/07/14 11:10:54;;;;;;;11.00;3.75;;;;;;;;;;5014316;28;20577;-57
2023/07/14 11:13:25;;;;;;;11.00;4.18;;;;;;;;;;5020437;28;20043;-59
2023/07/14 11:15:58;;;;;;;8.87;3.57;;;;;;;;;;5030778;28;20363;-58
2023/07/14 11:18:29;;;;;;;10.13;3.97;;;;;;;;;;5021841;28;20063;-57
2023/07/14 11:21:09;;;;;;;7.70;3.80;;;;;;;;;;5008692;28;20518;-58
2023/07/14 11:23:42;;;;;;;11.48;4.22;;;;;;;;;;5009427;28;20041;-58
2023/07/14 11:26:13;;;;;;;8.77;3.47;;;;;;;;;;4996352;28;20037;-58
2023/07/14 11:28:43;;;;;;;8.20;4.20;;;;;;;;;;5009936;28;20052;-58
2023/07/14 11:31:17;;;;;;;8.98;3.60;;;;;;;;;;5025047;28;20051;-59
2023/07/14 11:33:48;;;;;;;7.38;3.05;;;;;;;;;;5004402;28;20385;-57
2023/07/14 11:36:19;;;;;;;6.82;2.67;;;;;;;;;;5012594;28;20041;-58
2023/07/14 11:38:53;;;;;;;7.75;3.10;;;;;;;;;;5008198;28;20056;-58
2023/07/14 11:41:21;;;;;;;7.57;2.47;;;;;;;;;;5025120;28;20033;-58
2023/07/14 11:43:50;;;;;;;9.73;3.33;;;;;;;;;;5014427;28;20484;-58
2023/07/14 11:46:19;;;;;;;6.07;2.15;;;;;;;;;;5020147;28;20052;-58
2023/07/14 11:48:59;;;;;;;7.30;3.10;;;;;;;;;;5002776;28;20500;-57
2023/07/14 11:51:42;;;;;;;12.02;3.78;;;;;;;;;;5019140;28;20048;-57
2023/07/14 11:54:17;;;;;;;11.10;3.20;;;;;;;;;;5007274;28;20120;-57
2023/07/14 11:56:52;;;;;;;10.27;3.13;;;;;;;;;;5020341;28;20387;-56
2023/07/14 11:59:22;;;;;;;9.98;3.20;;;;;;;;;;5009508;28;20862;-58
2023/07/14 12:01:50;;;;;;;8.65;2.72;;;;;;;;;;5009070;28;20045;-58
2023/07/14 12:04:23;;;;;;;8.25;2.90;;;;;;;;;;5004659;28;20070;-58
2023/07/14 12:07:03;;;;;;;7.47;2.73;;;;;;;;;;5015156;28;20041;-58
2023/07/14 12:09:33;;;;;;;7.75;2.60;;;;;;;;;;5000472;28;20044;-58
2023/07/14 12:12:02;;;;;;;8.27;2.45;;;;;;;;;;5019543;28;20033;-58
2023/07/14 12:14:45;;;;;;;7.57;2.38;;;;;;;;;;5008752;28;20528;-58
2023/07/14 12:17:32;;;;;;;9.90;3.08;;;;;;;;;;5005650;28;20038;-57
2023/07/14 12:20:06;;;;;;;10.10;3.00;;;;;;;;;;5012677;28;20041;-57
2023/07/14 12:22:38;;;;;;;9.77;3.22;;;;;;;;;;5004758;28;20038;-58
2023/07/14 12:25:11;;;;;;;10.45;3.33;;;;;;;;;;5010323;28;20138;-57
2023/07/14 12:27:45;;;;;;;10.15;3.30;;;;;;;;;;5019165;28;20383;-56
2023/07/14 12:30:18;;;;;;;10.20;3.28;;;;;;;;;;5020297;28;20052;-57
2023/07/14 12:32:46;;;;;;;8.77;3.30;;;;;;;;;;5010475;28;20052;-57
2023/07/14 12:35:14;;;;;;;10.73;4.07;;;;;;;;;;4650819;28;9999780;-57
2023/07/14 12:37:46;;;;;;;12.63;4.43;;;;;;;;;;5001112;28;20856;-57
2023/07/14 12:40:16;;;;;;;10.73;4.00;;;;;;;;;;5009669;28;20044;-57
2023/07/14 12:42:44;;;;;;;13.03;4.37;;;;;;;;;;5004430;28;20045;-57
2023/07/14 12:45:12;;;;;;;8.45;3.97;;;;;;;;;;5010008;28;20053;-57
2023/07/14 12:47:41;;;;;;;10.30;3.25;;;;;;;;;;5007297;28;20041;-57
2023/07/14 12:50:14;;;;;;;11.80;4.20;;;;;;;;;;5018925;28;20098;-57
2023/07/14 12:52:42;;;;;;;15.55;5.55;;;;;;;;;;5010091;28;20045;-52
2023/07/14 12:55:12;;;;;;;10.83;4.33;;;;;;;;;;5001378;28;20041;-57
2023/07/14 12:57:41;;;;;;;11.43;4.97;;;;;;;;;;5012156;28;20099;-57
2023/07/14 13:00:20;;;;;;;13.00;4.40;;;;;;;;;;4669283;28;10000262;-57
2023/07/14 13:02:49;;;;;;;14.25;4.80;;;;;;;;;;5010444;28;20040;-57
2023/07/14 13:05:18;;;;;;;12.18;5.40;;;;;;;;;;5003170;28;20048;-57
2023/07/14 13:07:48;;;;;;;14.20;6.13;;;;;;;;;;5021309;28;20037;-57
2023/07/14 13:10:22;;;;;;;14.20;4.97;;;;;;;;;;4991405;28;20669;-57
2023/07/14 13:12:53;;;;;;;13.15;5.57;;;;;;;;;;5010960;28;20067;-57
2023/07/14 13:15:21;;;;;;;12.55;5.10;;;;;;;;;;5005629;28;20140;-58
2023/07/14 13:17:50;;;;;;;11.23;5.55;;;;;;;;;;5013128;28;20447;-58
2023/07/14 13:20:19;;;;;;;13.73;5.80;;;;;;;;;;5005353;28;20103;-57
2023/07/14 13:23:02;;;;;;;19.17;5.97;;;;;;;;;;5005060;28;20052;-57
2023/07/14 13:25:30;;;;;;;11.35;4.13;;;;;;;;;;5013958;28;20507;-58
2023/07/14 13:27:59;;;;;;;11.30;4.78;;;;;;;;;;5000066;28;20047;-57
2023/07/14 13:30:31;;;;;;;10.65;5.22;;;;;;;;;;5009885;28;20048;-58
2023/07/14 13:32:59;;;;;;;10.57;5.30;;;;;;;;;;5008226;28;20037;-57
2023/07/14 13:35:30;;;;;;;13.77;5.10;;;;;;;;;;5013873;28;20581;-58
2023/07/14 13:38:02;;;;;;;11.13;5.07;;;;;;;;;;5009648;28;20052;-57
2023/07/14 13:40:33;;;;;;;10.23;4.75;;;;;;;;;;4998543;28;20056;-58
2023/07/14 13:43:02;;;;;;;10.18;4.15;;;;;;;;;;5005230;28;20052;-58
2023/07/14 13:45:34;;;;;;;9.53;4.67;;;;;;;;;;5001552;28;20423;-58
2023/07/14 13:48:02;;;;;;;13.10;4.68;;;;;;;;;;5015089;28;20049;-58
2023/07/14 13:50:29;;;;;;;9.98;4.53;;;;;;;;;;5010113;28;20500;-57
2023/07/14 13:52:57;;;;;;;10.68;5.00;;;;;;;;;;5025459;28;20043;-58
2023/07/14 13:55:26;;;;;;;11.93;5.22;;;;;;;;;;4985480;28;20056;-58
2023/07/14 13:57:54;;;;;;;11.57;5.33;;;;;;;;;;5022587;28;20045;-58
2023/07/14 14:00:24;;;;;;;9.18;4.47;;;;;;;;;;4995469;28;20033;-58
2023/07/14 14:02:53;;;;;;;9.68;4.50;;;;;;;;;;5005271;28;20041;-58
2023/07/14 14:05:23;;;;;;;9.43;4.60;;;;;;;;;;5000123;28;20044;-58
2023/07/14 14:07:52;;;;;;;10.05;4.85;;;;;;;;;;5010240;28;20068;-59
2023/07/14 14:10:22;;;;;;;9.87;4.83;;;;;;;;;;5013305;28;20311;-58
2023/07/14 14:12:50;;;;;;;10.07;4.30;;;;;;;;;;5021418;28;20044;-58
2023/07/14 14:15:20;;;;;;;10.50;4.78;;;;;;;;;;5003635;28;20040;-57
2023/07/14 14:17:51;;;;;;;8.43;4.15;;;;;;;;;;5008557;28;20041;-57
2023/07/14 14:20:21;;;;;;;8.68;4.60;;;;;;;;;;5019542;28;20033;-58
2023/07/14 14:22:52;;;;;;;10.73;4.70;;;;;;;;;;5005677;28;20037;-58
2023/07/14 14:25:22;;;;;;;10.07;3.92;;;;;;;;;;5019129;28;20099;-58
2023/07/14 14:27:51;;;;;;;7.78;4.35;;;;;;;;;;5002530;28;20127;-58
2023/07/14 14:30:19;;;;;;;8.88;3.65;;;;;;;;;;5010075;28;20041;-58
2023/07/14 14:32:48;;;;;;;9.05;4.60;;;;;;;;;;5013105;28;20164;-58
2023/07/14 14:35:26;;;;;;;11.00;4.43;;;;;;;;;;5003870;28;20115;-58
2023/07/14 14:37:55;;;;;;;10.52;4.22;;;;;;;;;;5013995;28;20041;-58
2023/07/14 14:40:23;;;;;;;10.77;3.92;;;;;;;;;;5011428;28;20497;-58
2023/07/14 14:42:51;;;;;;;9.95;5.00;;;;;;;;;;5028375;28;20519;-58
2023/07/14 14:45:20;;;;;;;12.63;5.38;;;;;;;;;;5000808;28;20052;-58
2023/07/14 14:48:12;;;;;;;8.33;4.43;;;;;;;;;;5009463;28;20045;-58
2023/07/14 14:50:45;;;;;;;11.05;4.22;;;;;;;;;;5028500;28;20049;-58
2023/07/14 14:53:13;;;;;;;11.50;4.85;;;;;;;;;;5013964;28;20055;-58